sensor_id;sensor_type;location;lat;lon;timestamp;pressure;altitude;pressure_sealevel;temperature;humidity
9746;BME280;4912;50.836;12.958;2022-12-10T00:00:29;96726.19;;;4.31;80.80
9746;BME280;4912;50.836;12.958;2022-12-10T00:02:59;96727.41;;;4.30;81.09
9746;BME280;4912;50.836;12.958;2022-12-10T00:05:30;96725.75;;;4.33;81.01
9746;BME280;4912;50.836;12.958;2022-12-10T00:08:05;96724.22;;;4.32;81.36
9746;BME280;4912;50.836;12.958;2022-12-10T00:10:39;96730.13;;;4.30;81.67
9746;BME280;4912;50.836;12.958;2022-12-10T00:13:09;96733.19;;;4.32;82.13
9746;BME280;4912;50.836;12.958;2022-12-10T00:15:39;96733.19;;;4.32;82.36
9746;BME280;4912;50.836;12.958;2022-12-10T00:18:10;96726.47;;;4.24;82.49
9746;BME280;4912;50.836;12.958;2022-12-10T00:20:40;96727.72;;;4.23;82.75
9746;BME280;4912;50.836;12.958;2022-12-10T00:23:13;96726.94;;;4.23;82.89
9746;BME280;4912;50.836;12.958;2022-12-10T00:25:49;96726.78;;;4.17;83.35
9746;BME280;4912;50.836;12.958;2022-12-10T00:28:19;96732.53;;;4.10;83.35
9746;BME280;4912;50.836;12.958;2022-12-10T00:30:50;96726.13;;;4.13;83.27
9746;BME280;4912;50.836;12.958;2022-12-10T00:33:20;96729.19;;;4.15;83.56
9746;BME280;4912;50.836;12.958;2022-12-10T00:35:50;96732.84;;;4.12;83.75
9746;BME280;4912;50.836;12.958;2022-12-10T00:38:23;96719.16;;;4.12;83.55
9746;BME280;4912;50.836;12.958;2022-12-10T00:40:54;96720.03;;;4.09;83.50
9746;BME280;4912;50.836;12.958;2022-12-10T00:43:24;96720.81;;;4.09;83.84
9746;BME280;4912;50.836;12.958;2022-12-10T00:45:55;96722.78;;;4.09;84.07
9746;BME280;4912;50.836;12.958;2022-12-10T00:48:26;96727.06;;;4.10;84.42
9746;BME280;4912;50.836;12.958;2022-12-10T00:50:57;96731.00;;;4.09;84.57
9746;BME280;4912;50.836;12.958;2022-12-10T00:53:33;96729.34;;;4.11;84.57
9746;BME280;4912;50.836;12.958;2022-12-10T00:56:06;96732.84;;;4.12;84.40
9746;BME280;4912;50.836;12.958;2022-12-10T00:58:38;96734.66;;;4.15;84.25
9746;BME280;4912;50.836;12.958;2022-12-10T01:01:11;96733.72;;;4.09;84.34
9746;BME280;4912;50.836;12.958;2022-12-10T01:03:44;96739.53;;;4.11;84.63
9746;BME280;4912;50.836;12.958;2022-12-10T01:06:17;96733.41;;;4.07;84.42
9746;BME280;4912;50.836;12.958;2022-12-10T01:08:52;96735.22;;;4.01;84.56
9746;BME280;4912;50.836;12.958;2022-12-10T01:11:26;96740.84;;;3.97;84.93
9746;BME280;4912;50.836;12.958;2022-12-10T01:13:59;96746.91;;;3.92;85.14
9746;BME280;4912;50.836;12.958;2022-12-10T01:16:29;96743.41;;;3.92;85.24
9746;BME280;4912;50.836;12.958;2022-12-10T01:19:00;96747.03;;;3.89;85.62
9746;BME280;4912;50.836;12.958;2022-12-10T01:21:34;96741.25;;;3.87;85.93
9746;BME280;4912;50.836;12.958;2022-12-10T01:24:08;96745.94;;;3.86;85.96
9746;BME280;4912;50.836;12.958;2022-12-10T01:26:38;96752.63;;;3.85;85.91
9746;BME280;4912;50.836;12.958;2022-12-10T01:29:10;96750.81;;;3.82;85.88
9746;BME280;4912;50.836;12.958;2022-12-10T01:31:41;96750.66;;;3.86;85.93
9746;BME280;4912;50.836;12.958;2022-12-10T01:34:14;96753.06;;;3.84;86.02
9746;BME280;4912;50.836;12.958;2022-12-10T01:36:49;96753.84;;;3.84;86.19
9746;BME280;4912;50.836;12.958;2022-12-10T01:39:23;96758.88;;;3.86;86.50
9746;BME280;4912;50.836;12.958;2022-12-10T01:41:59;96757.94;;;3.80;87.25
9746;BME280;4912;50.836;12.958;2022-12-10T01:44:58;96753.22;;;3.80;87.67
9746;BME280;4912;50.836;12.958;2022-12-10T01:47:31;96761.59;;;3.86;88.11
9746;BME280;4912;50.836;12.958;2022-12-10T01:50:03;96756.75;;;3.90;87.85
9746;BME280;4912;50.836;12.958;2022-12-10T01:52:37;96753.06;;;3.84;88.27
9746;BME280;4912;50.836;12.958;2022-12-10T01:58:13;96751.25;;;3.81;88.34
9746;BME280;4912;50.836;12.958;2022-12-10T02:00:57;96755.50;;;3.82;87.89
9746;BME280;4912;50.836;12.958;2022-12-10T02:03:39;96753.53;;;3.82;87.88
9746;BME280;4912;50.836;12.958;2022-12-10T02:06:43;96760.41;;;3.87;87.84
9746;BME280;4912;50.836;12.958;2022-12-10T02:09:22;96768.59;;;3.87;88.35
9746;BME280;4912;50.836;12.958;2022-12-10T02:12:07;96770.13;;;3.88;88.23
9746;BME280;4912;50.836;12.958;2022-12-10T02:14:48;96754.47;;;3.88;88.07
9746;BME280;4912;50.836;12.958;2022-12-10T02:17:26;96756.00;;;3.89;88.14
9746;BME280;4912;50.836;12.958;2022-12-10T02:20:05;96752.03;;;3.90;88.44
9746;BME280;4912;50.836;12.958;2022-12-10T02:22:42;96752.81;;;3.91;88.63
9746;BME280;4912;50.836;12.958;2022-12-10T02:25:21;96744.59;;;3.91;88.79
9746;BME280;4912;50.836;12.958;2022-12-10T02:28:02;96747.47;;;3.87;88.86
9746;BME280;4912;50.836;12.958;2022-12-10T02:30:40;96749.78;;;3.89;89.07
9746;BME280;4912;50.836;12.958;2022-12-10T02:33:12;96755.38;;;3.85;89.11
9746;BME280;4912;50.836;12.958;2022-12-10T02:35:45;96753.84;;;3.84;89.19
9746;BME280;4912;50.836;12.958;2022-12-10T02:38:22;96745.44;;;3.79;89.55
9746;BME280;4912;50.836;12.958;2022-12-10T02:41:00;96753.66;;;3.79;89.83
9746;BME280;4912;50.836;12.958;2022-12-10T02:43:33;96755.34;;;3.76;90.00
9746;BME280;4912;50.836;12.958;2022-12-10T02:46:07;96753.81;;;3.75;90.43
9746;BME280;4912;50.836;12.958;2022-12-10T02:48:39;96755.44;;;3.72;90.76
9746;BME280;4912;50.836;12.958;2022-12-10T02:51:10;96758.06;;;3.76;91.05
9746;BME280;4912;50.836;12.958;2022-12-10T02:53:41;96760.03;;;3.76;90.76
9746;BME280;4912;50.836;12.958;2022-12-10T02:56:17;96758.06;;;3.76;90.77
9746;BME280;4912;50.836;12.958;2022-12-10T02:59:01;96759.28;;;3.75;90.65
9746;BME280;4912;50.836;12.958;2022-12-10T03:01:46;96758.94;;;3.73;90.48
9746;BME280;4912;50.836;12.958;2022-12-10T03:04:29;96765.19;;;3.74;89.96
9746;BME280;4912;50.836;12.958;2022-12-10T03:07:08;96772.19;;;3.75;89.79
9746;BME280;4912;50.836;12.958;2022-12-10T03:09:47;96769.13;;;3.72;90.05
9746;BME280;4912;50.836;12.958;2022-12-10T03:12:25;96773.06;;;3.71;90.39
9746;BME280;4912;50.836;12.958;2022-12-10T03:15:00;96771.56;;;3.70;90.91
9746;BME280;4912;50.836;12.958;2022-12-10T03:17:41;96769.13;;;3.72;90.97
9746;BME280;4912;50.836;12.958;2022-12-10T03:20:14;96775.81;;;3.71;90.95
9746;BME280;4912;50.836;12.958;2022-12-10T03:22:47;96776.84;;;3.65;90.96
9746;BME280;4912;50.836;12.958;2022-12-10T03:25:21;96772.59;;;3.64;91.13
9746;BME280;4912;50.836;12.958;2022-12-10T03:27:56;96773.03;;;3.62;91.61
9746;BME280;4912;50.836;12.958;2022-12-10T03:30:29;96771.06;;;3.63;91.96
9746;BME280;4912;50.836;12.958;2022-12-10T03:33:05;96769.84;;;3.64;92.19
9746;BME280;4912;50.836;12.958;2022-12-10T03:35:35;96770.91;;;3.66;92.59
9746;BME280;4912;50.836;12.958;2022-12-10T03:38:06;96767.56;;;3.62;92.89
9746;BME280;4912;50.836;12.958;2022-12-10T03:40:37;96767.22;;;3.60;93.00
9746;BME280;4912;50.836;12.958;2022-12-10T03:43:07;96755.22;;;3.58;93.28
9746;BME280;4912;50.836;12.958;2022-12-10T03:45:39;96757.19;;;3.57;93.32
9746;BME280;4912;50.836;12.958;2022-12-10T03:48:12;96757.97;;;3.58;93.32
9746;BME280;4912;50.836;12.958;2022-12-10T03:50:42;96747.03;;;3.58;93.39
9746;BME280;4912;50.836;12.958;2022-12-10T03:53:13;96753.56;;;3.60;93.26
9746;BME280;4912;50.836;12.958;2022-12-10T03:55:43;96755.53;;;3.60;93.32
9746;BME280;4912;50.836;12.958;2022-12-10T03:58:13;96757.50;;;3.59;93.40
9746;BME280;4912;50.836;12.958;2022-12-10T04:00:46;96750.38;;;3.62;93.47
9746;BME280;4912;50.836;12.958;2022-12-10T04:03:19;96753.56;;;3.60;93.33
9746;BME280;4912;50.836;12.958;2022-12-10T04:05:49;96757.06;;;3.61;93.04
9746;BME280;4912;50.836;12.958;2022-12-10T04:08:20;96755.53;;;3.60;92.90
9746;BME280;4912;50.836;12.958;2022-12-10T04:10:50;96763.88;;;3.56;92.97
9746;BME280;4912;50.836;12.958;2022-12-10T04:13:20;96760.38;;;3.56;92.90
9746;BME280;4912;50.836;12.958;2022-12-10T04:16:04;96763.53;;;3.54;93.12
9746;BME280;4912;50.836;12.958;2022-12-10T04:18:50;96761.72;;;3.51;93.04
9746;BME280;4912;50.836;12.958;2022-12-10T04:21:28;96764.44;;;3.51;93.17
9746;BME280;4912;50.836;12.958;2022-12-10T04:24:12;96769.50;;;3.53;93.64
9746;BME280;4912;50.836;12.958;2022-12-10T04:26:57;96767.19;;;3.51;93.35
9746;BME280;4912;50.836;12.958;2022-12-10T04:29:29;96766.44;;;3.51;93.40
9746;BME280;4912;50.836;12.958;2022-12-10T04:32:00;96762.31;;;3.46;93.40
9746;BME280;4912;50.836;12.958;2022-12-10T04:34:33;96753.78;;;3.44;93.83
9746;BME280;4912;50.836;12.958;2022-12-10T04:37:05;96763.84;;;3.47;93.78
9746;BME280;4912;50.836;12.958;2022-12-10T04:39:38;96759.88;;;3.48;93.79
9746;BME280;4912;50.836;12.958;2022-12-10T04:42:09;96755.50;;;3.51;93.75
9746;BME280;4912;50.836;12.958;2022-12-10T04:44:40;96763.69;;;3.51;93.26
9746;BME280;4912;50.836;12.958;2022-12-10T04:47:11;96752.31;;;3.52;93.53
9746;BME280;4912;50.836;12.958;2022-12-10T04:49:44;96753.97;;;3.50;93.14
9746;BME280;4912;50.836;12.958;2022-12-10T04:52:15;96758.66;;;3.49;93.10
9746;BME280;4912;50.836;12.958;2022-12-10T04:54:46;96758.22;;;3.51;93.56
9746;BME280;4912;50.836;12.958;2022-12-10T04:57:16;96759.59;;;3.55;93.52
9746;BME280;4912;50.836;12.958;2022-12-10T04:59:47;96752.31;;;3.52;92.99
9746;BME280;4912;50.836;12.958;2022-12-10T05:02:17;96748.38;;;3.53;93.25
9746;BME280;4912;50.836;12.958;2022-12-10T05:04:50;96753.09;;;3.53;93.39
9746;BME280;4912;50.836;12.958;2022-12-10T05:07:21;96754.13;;;3.55;93.11
9746;BME280;4912;50.836;12.958;2022-12-10T05:09:52;96749.75;;;3.58;92.78
9746;BME280;4912;50.836;12.958;2022-12-10T05:12:22;96754.47;;;3.57;92.88
9746;BME280;4912;50.836;12.958;2022-12-10T05:14:52;96746.25;;;3.57;92.58
9746;BME280;4912;50.836;12.958;2022-12-10T05:17:23;96749.28;;;3.59;92.52
9746;BME280;4912;50.836;12.958;2022-12-10T05:19:56;96754.91;;;3.56;92.81
9746;BME280;4912;50.836;12.958;2022-12-10T05:22:27;96750.19;;;3.56;92.92
9746;BME280;4912;50.836;12.958;2022-12-10T05:25:09;96751.72;;;3.57;92.87
9746;BME280;4912;50.836;12.958;2022-12-10T05:27:40;96749.88;;;3.54;92.70
9746;BME280;4912;50.836;12.958;2022-12-10T05:30:10;96754.47;;;3.57;92.58
9746;BME280;4912;50.836;12.958;2022-12-10T05:32:41;96755.66;;;3.56;92.47
9746;BME280;4912;50.836;12.958;2022-12-10T05:35:14;96755.34;;;3.54;92.26
9746;BME280;4912;50.836;12.958;2022-12-10T05:37:44;96750.66;;;3.55;92.19
9746;BME280;4912;50.836;12.958;2022-12-10T05:40:15;96752.31;;;3.52;91.97
9746;BME280;4912;50.836;12.958;2022-12-10T05:42:45;96757.47;;;3.50;91.63
9746;BME280;4912;50.836;12.958;2022-12-10T05:45:16;96758.38;;;3.47;91.59
9746;BME280;4912;50.836;12.958;2022-12-10T05:47:46;96766.56;;;3.47;91.95
9746;BME280;4912;50.836;12.958;2022-12-10T05:50:19;96764.56;;;3.48;91.81
9746;BME280;4912;50.836;12.958;2022-12-10T05:52:50;96781.88;;;3.45;91.94
9746;BME280;4912;50.836;12.958;2022-12-10T05:55:21;96778.81;;;3.43;92.00
9746;BME280;4912;50.836;12.958;2022-12-10T05:57:51;96783.41;;;3.46;92.03
9746;BME280;4912;50.836;12.958;2022-12-10T06:00:22;96778.72;;;3.46;91.84
9746;BME280;4912;50.836;12.958;2022-12-10T06:02:52;96786.91;;;3.46;91.47
9746;BME280;4912;50.836;12.958;2022-12-10T06:05:25;96773.25;;;3.46;91.50
9746;BME280;4912;50.836;12.958;2022-12-10T06:07:56;96786.00;;;3.49;91.25
9746;BME280;4912;50.836;12.958;2022-12-10T06:10:26;96787.09;;;3.52;90.99
9746;BME280;4912;50.836;12.958;2022-12-10T06:12:56;96786.34;;;3.51;90.85
9746;BME280;4912;50.836;12.958;2022-12-10T06:15:26;96784.81;;;3.50;90.52
9746;BME280;4912;50.836;12.958;2022-12-10T06:17:57;96791.81;;;3.51;90.36
9746;BME280;4912;50.836;12.958;2022-12-10T06:20:30;96793.34;;;3.52;90.26
9746;BME280;4912;50.836;12.958;2022-12-10T06:23:00;96794.84;;;3.53;90.55
9746;BME280;4912;50.836;12.958;2022-12-10T06:25:31;96796.38;;;3.54;90.58
9746;BME280;4912;50.836;12.958;2022-12-10T06:28:01;96796.38;;;3.54;90.34
9746;BME280;4912;50.836;12.958;2022-12-10T06:30:32;96798.03;;;3.52;89.80
9746;BME280;4912;50.836;12.958;2022-12-10T06:33:03;96799.38;;;3.47;90.36
9746;BME280;4912;50.836;12.958;2022-12-10T06:35:37;96806.34;;;3.48;90.25
9746;BME280;4912;50.836;12.958;2022-12-10T06:38:07;96815.00;;;3.47;90.90
9746;BME280;4912;50.836;12.958;2022-12-10T06:40:39;96815.97;;;3.53;90.83
9746;BME280;4912;50.836;12.958;2022-12-10T06:43:09;96812.78;;;3.54;90.31
9746;BME280;4912;50.836;12.958;2022-12-10T06:45:40;96812.00;;;3.54;89.88
9746;BME280;4912;50.836;12.958;2022-12-10T06:48:10;96808.97;;;3.52;89.54
9746;BME280;4912;50.836;12.958;2022-12-10T06:50:43;96809.97;;;3.45;89.74
9746;BME280;4912;50.836;12.958;2022-12-10T06:53:14;96816.13;;;3.37;89.75
9746;BME280;4912;50.836;12.958;2022-12-10T06:55:44;96817.81;;;3.34;90.17
9746;BME280;4912;50.836;12.958;2022-12-10T06:58:14;96813.88;;;3.35;90.54
9746;BME280;4912;50.836;12.958;2022-12-10T07:00:45;96815.38;;;3.36;90.78
9746;BME280;4912;50.836;12.958;2022-12-10T07:03:15;96818.75;;;3.40;90.38
9746;BME280;4912;50.836;12.958;2022-12-10T07:05:48;96830.75;;;3.43;90.20
9746;BME280;4912;50.836;12.958;2022-12-10T07:08:18;96832.28;;;3.44;90.82
9746;BME280;4912;50.836;12.958;2022-12-10T07:10:50;96827.91;;;3.46;91.13
9746;BME280;4912;50.836;12.958;2022-12-10T07:13:20;96822.84;;;3.57;91.60
9746;BME280;4912;50.836;12.958;2022-12-10T07:15:56;96826.78;;;3.56;91.25
9746;BME280;4912;50.836;12.958;2022-12-10T07:18:27;96839.34;;;3.54;90.33
9746;BME280;4912;50.836;12.958;2022-12-10T07:21:00;96829.94;;;3.55;90.18
9746;BME280;4912;50.836;12.958;2022-12-10T07:23:31;96828.88;;;3.52;90.77
9746;BME280;4912;50.836;12.958;2022-12-10T07:26:01;96834.66;;;3.54;91.61
9746;BME280;4912;50.836;12.958;2022-12-10T07:28:32;96831.03;;;3.57;91.51
9746;BME280;4912;50.836;12.958;2022-12-10T07:31:19;96839.53;;;3.59;91.38
9746;BME280;4912;50.836;12.958;2022-12-10T07:33:51;96827.41;;;3.60;91.07
9746;BME280;4912;50.836;12.958;2022-12-10T07:36:26;96832.44;;;3.62;91.27
9746;BME280;4912;50.836;12.958;2022-12-10T07:38:56;96839.75;;;3.65;90.87
9746;BME280;4912;50.836;12.958;2022-12-10T07:41:27;96843.69;;;3.64;90.88
9746;BME280;4912;50.836;12.958;2022-12-10T07:43:57;96844.47;;;3.64;90.92
9746;BME280;4912;50.836;12.958;2022-12-10T07:46:30;96849.16;;;3.64;91.04
9746;BME280;4912;50.836;12.958;2022-12-10T07:49:02;96836.25;;;3.64;91.00
9746;BME280;4912;50.836;12.958;2022-12-10T07:51:35;96849.03;;;3.67;90.03
9746;BME280;4912;50.836;12.958;2022-12-10T07:54:06;96837.13;;;3.61;90.25
9746;BME280;4912;50.836;12.958;2022-12-10T07:56:36;96842.75;;;3.58;90.76
9746;BME280;4912;50.836;12.958;2022-12-10T07:59:06;96844.81;;;3.54;90.82
9746;BME280;4912;50.836;12.958;2022-12-10T08:01:37;96850.75;;;3.52;91.12
9746;BME280;4912;50.836;12.958;2022-12-10T08:04:07;96850.00;;;3.52;91.36
9746;BME280;4912;50.836;12.958;2022-12-10T08:06:40;96854.69;;;3.51;91.44
9746;BME280;4912;50.836;12.958;2022-12-10T08:09:11;96837.94;;;3.49;91.21
9746;BME280;4912;50.836;12.958;2022-12-10T08:11:41;96840.06;;;3.45;91.77
9746;BME280;4912;50.836;12.958;2022-12-10T08:14:11;96848.84;;;3.40;91.77
9746;BME280;4912;50.836;12.958;2022-12-10T08:16:42;96852.34;;;3.41;91.85
9746;BME280;4912;50.836;12.958;2022-12-10T08:19:12;96847.81;;;3.47;91.80
9746;BME280;4912;50.836;12.958;2022-12-10T08:21:52;96852.28;;;3.53;91.36
9746;BME280;4912;50.836;12.958;2022-12-10T08:24:22;96848.31;;;3.54;91.37
9746;BME280;4912;50.836;12.958;2022-12-10T08:26:53;96851.72;;;3.58;91.00
9746;BME280;4912;50.836;12.958;2022-12-10T08:29:23;96847.75;;;3.59;90.72
9746;BME280;4912;50.836;12.958;2022-12-10T08:31:54;96852.78;;;3.61;90.54
9746;BME280;4912;50.836;12.958;2022-12-10T08:34:25;96853.88;;;3.63;90.72
9746;BME280;4912;50.836;12.958;2022-12-10T08:36:58;96852.97;;;3.66;90.47
9746;BME280;4912;50.836;12.958;2022-12-10T08:39:28;96849.78;;;3.68;90.24
9746;BME280;4912;50.836;12.958;2022-12-10T08:42:00;96855.13;;;3.71;90.19
9746;BME280;4912;50.836;12.958;2022-12-10T08:44:30;96860.34;;;3.79;89.92
9746;BME280;4912;50.836;12.958;2022-12-10T08:47:00;96863.75;;;3.83;89.61
9746;BME280;4912;50.836;12.958;2022-12-10T08:49:31;96861.00;;;3.83;89.44
9746;BME280;4912;50.836;12.958;2022-12-10T08:52:04;96867.22;;;3.83;89.25
9746;BME280;4912;50.836;12.958;2022-12-10T08:54:34;96873.44;;;3.84;89.54
9746;BME280;4912;50.836;12.958;2022-12-10T08:57:05;96871.63;;;3.81;89.54
9746;BME280;4912;50.836;12.958;2022-12-10T08:59:35;96873.16;;;3.82;89.21
9746;BME280;4912;50.836;12.958;2022-12-10T09:02:07;96872.81;;;3.80;89.58
9746;BME280;4912;50.836;12.958;2022-12-10T09:04:39;96883.00;;;3.79;88.85
9746;BME280;4912;50.836;12.958;2022-12-10T09:07:12;96886.16;;;3.78;88.75
9746;BME280;4912;50.836;12.958;2022-12-10T09:09:42;96889.47;;;3.72;88.79
9746;BME280;4912;50.836;12.958;2022-12-10T09:12:13;96888.72;;;3.72;89.04
9746;BME280;4912;50.836;12.958;2022-12-10T09:14:43;96884.34;;;3.75;88.40
9746;BME280;4912;50.836;12.958;2022-12-10T09:17:13;96887.41;;;3.77;88.14
9746;BME280;4912;50.836;12.958;2022-12-10T09:19:44;96887.72;;;3.79;87.84
9746;BME280;4912;50.836;12.958;2022-12-10T09:22:17;96885.28;;;3.81;87.22
9746;BME280;4912;50.836;12.958;2022-12-10T09:24:47;96884.09;;;3.82;87.02
9746;BME280;4912;50.836;12.958;2022-12-10T09:27:18;96880.00;;;3.86;87.39
9746;BME280;4912;50.836;12.958;2022-12-10T09:29:48;96876.25;;;3.93;87.20
9746;BME280;4912;50.836;12.958;2022-12-10T09:32:19;96885.09;;;3.97;86.58
9746;BME280;4912;50.836;12.958;2022-12-10T09:34:50;96879.63;;;3.97;86.45
9746;BME280;4912;50.836;12.958;2022-12-10T09:37:23;96879.94;;;3.99;85.88
9746;BME280;4912;50.836;12.958;2022-12-10T09:39:54;96884.06;;;4.03;85.78
9746;BME280;4912;50.836;12.958;2022-12-10T09:42:33;96881.66;;;4.05;85.82
9746;BME280;4912;50.836;12.958;2022-12-10T09:45:14;96877.25;;;4.08;85.63
9746;BME280;4912;50.836;12.958;2022-12-10T09:47:54;96879.28;;;4.17;85.28
9746;BME280;4912;50.836;12.958;2022-12-10T09:50:30;96877.03;;;4.24;85.50
9746;BME280;4912;50.836;12.958;2022-12-10T09:53:09;96877.97;;;4.30;85.09
9746;BME280;4912;50.836;12.958;2022-12-10T09:55:45;96877.38;;;4.26;84.67
9746;BME280;4912;50.836;12.958;2022-12-10T09:58:20;96868.53;;;4.22;83.57
9746;BME280;4912;50.836;12.958;2022-12-10T10:00:59;96869.28;;;4.23;84.27
9746;BME280;4912;50.836;12.958;2022-12-10T10:03:36;96864.88;;;4.25;83.52
9746;BME280;4912;50.836;12.958;2022-12-10T10:06:09;96874.88;;;4.19;83.07
9746;BME280;4912;50.836;12.958;2022-12-10T10:08:47;96866.38;;;4.17;83.44
9746;BME280;4912;50.836;12.958;2022-12-10T10:11:23;96866.31;;;4.08;83.24
9746;BME280;4912;50.836;12.958;2022-12-10T10:13:57;96865.63;;;3.95;84.09
9746;BME280;4912;50.836;12.958;2022-12-10T10:16:33;96865.31;;;3.93;84.81
9746;BME280;4912;50.836;12.958;2022-12-10T10:19:10;96863.78;;;3.92;85.29
9746;BME280;4912;50.836;12.958;2022-12-10T10:21:45;96870.47;;;3.91;85.69
9746;BME280;4912;50.836;12.958;2022-12-10T10:24:21;96865.75;;;3.91;85.84
9746;BME280;4912;50.836;12.958;2022-12-10T10:26:57;96864.13;;;3.94;85.88
9746;BME280;4912;50.836;12.958;2022-12-10T10:29:28;96864.94;;;3.82;85.21
9746;BME280;4912;50.836;12.958;2022-12-10T10:32:11;96873.59;;;3.80;85.58
9746;BME280;4912;50.836;12.958;2022-12-10T10:34:45;96876.13;;;3.75;85.71
9746;BME280;4912;50.836;12.958;2022-12-10T10:37:20;96863.28;;;3.84;85.27
9746;BME280;4912;50.836;12.958;2022-12-10T10:39:55;96867.72;;;3.91;84.69
9746;BME280;4912;50.836;12.958;2022-12-10T10:42:35;96861.38;;;3.94;84.62
9746;BME280;4912;50.836;12.958;2022-12-10T10:45:36;96866.84;;;3.94;84.11
9746;BME280;4912;50.836;12.958;2022-12-10T10:48:13;96863.66;;;3.95;84.25
9746;BME280;4912;50.836;12.958;2022-12-10T10:50:47;96864.56;;;3.92;84.15
9746;BME280;4912;50.836;12.958;2022-12-10T10:53:30;96861.50;;;3.90;84.48
9746;BME280;4912;50.836;12.958;2022-12-10T10:56:09;96861.63;;;3.87;83.91
9746;BME280;4912;50.836;12.958;2022-12-10T10:58:53;96857.81;;;3.84;84.47
9746;BME280;4912;50.836;12.958;2022-12-10T11:01:42;96861.63;;;3.87;84.51
9746;BME280;4912;50.836;12.958;2022-12-10T11:04:15;96862.06;;;3.85;84.70
9746;BME280;4912;50.836;12.958;2022-12-10T11:06:50;96866.59;;;3.79;84.31
9746;BME280;4912;50.836;12.958;2022-12-10T11:09:28;96867.69;;;3.82;84.59
9746;BME280;4912;50.836;12.958;2022-12-10T11:12:04;96857.63;;;3.79;85.38
9746;BME280;4912;50.836;12.958;2022-12-10T11:14:39;96876.75;;;3.79;85.77
9746;BME280;4912;50.836;12.958;2022-12-10T11:17:18;96869.47;;;3.76;85.63
9746;BME280;4912;50.836;12.958;2022-12-10T11:20:00;96871.28;;;3.79;85.58
9746;BME280;4912;50.836;12.958;2022-12-10T11:22:48;96867.50;;;3.76;85.34
9746;BME280;4912;50.836;12.958;2022-12-10T11:25:33;96875.22;;;3.78;84.67
9746;BME280;4912;50.836;12.958;2022-12-10T11:28:24;96874.47;;;3.77;84.46
9746;BME280;4912;50.836;12.958;2022-12-10T11:31:27;96873.59;;;3.80;83.82
9746;BME280;4912;50.836;12.958;2022-12-10T11:34:11;96878.16;;;3.83;83.23
9746;BME280;4912;50.836;12.958;2022-12-10T11:36:54;96874.69;;;3.83;82.60
9746;BME280;4912;50.836;12.958;2022-12-10T11:39:45;96875.56;;;3.80;82.85
9746;BME280;4912;50.836;12.958;2022-12-10T11:42:41;96873.34;;;3.87;82.22
9746;BME280;4912;50.836;12.958;2022-12-10T11:45:24;96875.06;;;3.94;80.62
9746;BME280;4912;50.836;12.958;2022-12-10T11:48:08;96865.34;;;4.02;79.69
9746;BME280;4912;50.836;12.958;2022-12-10T11:50:46;96862.03;;;4.07;78.97
9746;BME280;4912;50.836;12.958;2022-12-10T11:53:37;96864.53;;;4.14;78.75
9746;BME280;4912;50.836;12.958;2022-12-10T11:56:23;96874.53;;;4.08;78.64
9746;BME280;4912;50.836;12.958;2022-12-10T11:59:09;96872.38;;;4.03;78.66
9746;BME280;4912;50.836;12.958;2022-12-10T12:02:08;96877.97;;;3.99;79.43
9746;BME280;4912;50.836;12.958;2022-12-10T12:05:06;96872.19;;;3.97;79.58
9746;BME280;4912;50.836;12.958;2022-12-10T12:07:53;96881.16;;;3.98;80.28
9746;BME280;4912;50.836;12.958;2022-12-10T12:13:41;96876.69;;;3.91;79.79
9746;BME280;4912;50.836;12.958;2022-12-10T12:16:22;96878.47;;;3.85;79.71
9746;BME280;4912;50.836;12.958;2022-12-10T12:19:04;96873.44;;;3.84;80.45
9746;BME280;4912;50.836;12.958;2022-12-10T12:21:40;96883.63;;;3.83;80.78
9746;BME280;4912;50.836;12.958;2022-12-10T12:24:16;96880.16;;;3.83;80.98
9746;BME280;4912;50.836;12.958;2022-12-10T12:26:52;96882.56;;;3.81;81.52
9746;BME280;4912;50.836;12.958;2022-12-10T12:29:30;96881.03;;;3.80;81.74
9746;BME280;4912;50.836;12.958;2022-12-10T12:32:09;96878.91;;;3.84;81.82
9746;BME280;4912;50.836;12.958;2022-12-10T12:34:49;96878.03;;;3.87;81.32
9746;BME280;4912;50.836;12.958;2022-12-10T12:37:32;96878.56;;;3.94;80.80
9746;BME280;4912;50.836;12.958;2022-12-10T12:40:12;96883.38;;;3.90;80.70
9746;BME280;4912;50.836;12.958;2022-12-10T12:42:49;96887.03;;;3.87;80.70
9746;BME280;4912;50.836;12.958;2022-12-10T12:45:33;96881.47;;;3.78;80.59
9746;BME280;4912;50.836;12.958;2022-12-10T12:48:18;96877.97;;;3.78;80.81
9746;BME280;4912;50.836;12.958;2022-12-10T12:51:00;96876.66;;;3.82;80.98
9746;BME280;4912;50.836;12.958;2022-12-10T12:53:34;96879.19;;;3.77;80.84
9746;BME280;4912;50.836;12.958;2022-12-10T12:56:07;96867.16;;;3.74;81.21
9746;BME280;4912;50.836;12.958;2022-12-10T12:58:47;96881.16;;;3.76;81.37
9746;BME280;4912;50.836;12.958;2022-12-10T13:01:29;96878.44;;;3.76;81.92
9746;BME280;4912;50.836;12.958;2022-12-10T13:04:03;96880.97;;;3.70;82.36
9746;BME280;4912;50.836;12.958;2022-12-10T13:06:38;96890.38;;;3.69;82.65
9746;BME280;4912;50.836;12.958;2022-12-10T13:09:25;96892.47;;;3.65;82.56
9746;BME280;4912;50.836;12.958;2022-12-10T13:12:24;96900.75;;;3.53;82.77
9746;BME280;4912;50.836;12.958;2022-12-10T13:15:13;96900.53;;;3.47;83.17
9746;BME280;4912;50.836;12.958;2022-12-10T13:21:24;96907.78;;;3.41;83.65
9746;BME280;4912;50.836;12.958;2022-12-10T13:24:12;96909.75;;;3.41;83.59
9746;BME280;4912;50.836;12.958;2022-12-10T13:27:04;96910.81;;;3.43;82.93
9746;BME280;4912;50.836;12.958;2022-12-10T13:29:46;96910.81;;;3.43;82.90
9746;BME280;4912;50.836;12.958;2022-12-10T13:32:42;96911.59;;;3.44;83.03
9746;BME280;4912;50.836;12.958;2022-12-10T13:35:29;96914.94;;;3.48;82.57
9746;BME280;4912;50.836;12.958;2022-12-10T13:38:05;96921.66;;;3.47;82.50
9746;BME280;4912;50.836;12.958;2022-12-10T13:41:00;96923.72;;;3.43;82.30
9746;BME280;4912;50.836;12.958;2022-12-10T13:43:53;96917.38;;;3.46;82.22
9746;BME280;4912;50.836;12.958;2022-12-10T13:46:53;96921.38;;;3.54;81.91
9746;BME280;4912;50.836;12.958;2022-12-10T13:49:29;96924.59;;;3.52;81.38
9746;BME280;4912;50.836;12.958;2022-12-10T13:52:02;96923.91;;;3.48;81.48
9746;BME280;4912;50.836;12.958;2022-12-10T13:54:59;96924.50;;;3.43;81.32
9746;BME280;4912;50.836;12.958;2022-12-10T13:58:08;96928.56;;;3.39;81.66
9746;BME280;4912;50.836;12.958;2022-12-10T14:01:02;96932.63;;;3.34;81.52
9746;BME280;4912;50.836;12.958;2022-12-10T14:03:57;96939.50;;;3.26;81.37
9746;BME280;4912;50.836;12.958;2022-12-10T14:06:34;96940.41;;;3.23;81.49
9746;BME280;4912;50.836;12.958;2022-12-10T14:09:11;96943.13;;;3.23;81.94
9746;BME280;4912;50.836;12.958;2022-12-10T14:11:49;96941.50;;;3.13;82.09
9746;BME280;4912;50.836;12.958;2022-12-10T14:14:29;96943.47;;;3.12;82.55
9746;BME280;4912;50.836;12.958;2022-12-10T14:17:03;96946.31;;;3.09;82.58